createdAt,value
2022-12-23T00:04:08.910Z,12.82
2022-12-23T00:09:12.095Z,12.85
2022-12-23T00:14:33.931Z,12.73
2022-12-23T00:19:37.044Z,12.68
2022-12-23T00:24:40.047Z,12.59
2022-12-23T00:29:43.773Z,12.68
2022-12-23T00:34:46.884Z,12.69
2022-12-23T00:40:08.825Z,12.73
2022-12-23T00:45:17.572Z,12.67
2022-12-23T00:50:20.573Z,12.71
2022-12-23T00:55:23.893Z,12.75
2022-12-23T01:00:45.665Z,12.42
2022-12-23T01:05:48.739Z,10.96
2022-12-23T01:10:52.258Z,11.71
2022-12-23T01:16:01.577Z,12.27
2022-12-23T01:21:08.311Z,12.64
2022-12-23T01:26:12.197Z,12.83
2022-12-23T01:31:15.279Z,11.52
2022-12-23T01:36:19.373Z,10.49
2022-12-23T01:41:47.162Z,11.34
2022-12-23T01:46:50.578Z,11.98
2022-12-23T01:51:53.692Z,12.20
2022-12-23T01:56:57.513Z,12.14
2022-12-23T02:02:20.440Z,12.08
2022-12-23T02:07:42.745Z,12.17
2022-12-23T02:13:11.560Z,12.24
2022-12-23T02:18:36.066Z,12.49
2022-12-23T02:23:45.112Z,12.53
2022-12-23T02:29:32.259Z,12.50
2022-12-23T02:34:49.393Z,11.10
2022-12-23T02:40:38.890Z,10.01
2022-12-23T02:45:51.674Z,11.31
2022-12-23T02:50:57.726Z,11.88
2022-12-23T02:56:03.681Z,12.22
2022-12-23T03:01:08.329Z,12.41
2022-12-23T03:06:25.461Z,11.57
2022-12-23T03:11:59.023Z,9.46
2022-12-23T03:17:18.067Z,9.79
2022-12-23T03:22:40.940Z,10.96
2022-12-23T03:27:53.275Z,11.50
2022-12-23T03:33:02.939Z,11.89
2022-12-23T03:38:08.990Z,12.08
2022-12-23T03:43:26.250Z,12.21
2022-12-23T03:48:40.932Z,12.00
2022-12-23T03:53:52.408Z,10.47
2022-12-23T03:58:59.510Z,10.99
2022-12-23T04:04:23.795Z,11.36
2022-12-23T04:09:29.245Z,11.72
2022-12-23T04:14:34.261Z,11.78
2022-12-23T04:19:37.487Z,11.78
2022-12-23T04:24:40.577Z,11.95
2022-12-23T04:29:44.097Z,12.01
2022-12-23T04:34:47.117Z,12.05
2022-12-23T04:39:50.211Z,12.16
2022-12-23T04:44:53.242Z,12.17
2022-12-23T04:49:56.652Z,12.17
2022-12-23T04:54:59.752Z,12.10
2022-12-23T05:00:04.155Z,12.02
2022-12-23T05:05:07.567Z,11.96
2022-12-23T05:10:11.110Z,12.00
2022-12-23T05:15:14.123Z,12.10
2022-12-23T05:20:17.337Z,11.62
2022-12-23T05:25:20.544Z,9.52
2022-12-23T05:30:23.650Z,9.38
2022-12-23T05:35:27.947Z,10.57
2022-12-23T05:40:31.995Z,11.00
2022-12-23T05:45:36.615Z,11.50
2022-12-23T05:50:40.499Z,11.69
2022-12-23T05:55:43.495Z,11.85
2022-12-23T06:00:46.501Z,11.92
2022-12-23T06:05:52.491Z,11.80
2022-12-23T06:10:55.488Z,11.73
2022-12-23T06:15:58.500Z,11.43
2022-12-23T06:21:01.393Z,11.49
2022-12-23T06:26:04.405Z,11.54
2022-12-23T06:31:07.410Z,11.65
2022-12-23T06:36:10.729Z,11.72
2022-12-23T06:41:13.837Z,11.71
2022-12-23T06:46:16.875Z,11.71
2022-12-23T06:51:20.049Z,11.75
2022-12-23T06:56:23.154Z,11.62
2022-12-23T07:01:26.255Z,11.51
2022-12-23T07:06:29.580Z,11.50
2022-12-23T07:11:32.591Z,11.66
2022-12-23T07:16:35.640Z,11.60
2022-12-23T07:21:39.823Z,11.67
2022-12-23T07:26:42.896Z,11.44
2022-12-23T07:31:45.996Z,11.28
2022-12-23T07:36:49.048Z,11.22
2022-12-23T07:42:09.041Z,11.27
2022-12-23T07:47:15.746Z,11.43
2022-12-23T07:52:19.200Z,11.55
2022-12-23T07:57:22.171Z,11.70
2022-12-23T08:02:25.711Z,11.71
2022-12-23T08:07:29.114Z,11.75
2022-12-23T08:12:32.832Z,11.76
2022-12-23T08:17:35.841Z,11.79
2022-12-23T08:22:38.845Z,11.75
2022-12-23T08:27:41.855Z,11.85
2022-12-23T08:32:44.967Z,11.89
2022-12-23T08:37:48.068Z,11.76
2022-12-23T08:42:51.280Z,11.70
2022-12-23T08:47:54.395Z,11.48
2022-12-23T08:52:57.608Z,11.61
2022-12-23T08:58:00.597Z,11.55
2022-12-23T09:03:04.222Z,11.41
2022-12-23T09:08:07.875Z,11.56
2022-12-23T09:13:15.216Z,11.65
2022-12-23T09:18:23.179Z,11.86
2022-12-23T09:23:26.386Z,11.68
2022-12-23T09:28:29.391Z,11.58
2022-12-23T09:33:32.313Z,11.49
2022-12-23T09:38:36.200Z,11.39
2022-12-23T09:43:57.874Z,11.47
2022-12-23T09:49:13.584Z,11.64
2022-12-23T09:54:22.528Z,11.70
2022-12-23T09:59:35.360Z,11.90
2022-12-23T10:04:47.682Z,11.91
2022-12-23T10:09:53.202Z,12.01
2022-12-23T10:14:59.604Z,12.03
2022-12-23T10:20:05.578Z,11.92
2022-12-23T10:25:25.536Z,12.00
2022-12-23T10:30:57.240Z,11.69
2022-12-23T10:36:12.950Z,10.82
2022-12-23T10:41:25.237Z,11.52
2022-12-23T10:46:50.736Z,11.85
2022-12-23T10:51:59.197Z,12.05
2022-12-23T10:57:04.764Z,12.13
2022-12-23T11:02:13.761Z,12.40
2022-12-23T11:12:51.980Z,10.71
2022-12-23T11:18:15.122Z,11.40
2022-12-23T11:23:31.366Z,12.12
2022-12-23T11:28:40.940Z,12.45
2022-12-23T11:33:57.762Z,12.41
2022-12-23T11:39:14.485Z,12.47
2022-12-23T11:44:40.008Z,12.16
2022-12-23T11:49:51.934Z,11.27
2022-12-23T11:54:58.935Z,12.26
2022-12-23T12:00:06.364Z,12.73
2022-12-23T12:05:40.866Z,11.51
2022-12-23T12:10:44.788Z,11.66
2022-12-23T12:16:20.154Z,12.36
2022-12-23T12:21:31.595Z,11.73
2022-12-23T12:26:37.428Z,10.56
2022-12-23T12:31:48.648Z,11.67
2022-12-23T12:37:16.066Z,12.31
2022-12-23T12:42:32.874Z,12.54
2022-12-23T12:47:54.166Z,11.91
2022-12-23T12:53:06.529Z,10.66
2022-12-23T12:58:16.755Z,11.61
2022-12-23T13:03:57.739Z,12.02
2022-12-23T13:09:28.771Z,12.26
2022-12-23T13:15:05.767Z,12.04
2022-12-23T13:20:24.036Z,10.36
2022-12-23T13:25:40.370Z,11.34
2022-12-23T13:31:04.672Z,12.00
2022-12-23T13:36:27.186Z,12.42
2022-12-23T13:41:34.648Z,11.75
2022-12-23T13:46:54.131Z,10.45
2022-12-23T13:52:00.115Z,11.46
2022-12-23T13:57:41.898Z,12.06
2022-12-23T14:03:00.241Z,12.25
2022-12-23T14:08:20.486Z,12.17
2022-12-23T14:13:27.423Z,10.21
2022-12-23T14:18:36.235Z,9.76
2022-12-23T14:23:45.793Z,10.93
2022-12-23T14:29:04.353Z,11.62
2022-12-23T14:34:20.356Z,12.00
2022-12-23T14:39:33.024Z,12.17
2022-12-23T14:44:36.015Z,10.54
2022-12-23T14:49:44.240Z,9.53
2022-12-23T14:55:13.268Z,10.80
2022-12-23T15:00:10.631Z,11.45
2022-12-23T15:05:14.364Z,11.74
2022-12-23T15:10:22.331Z,12.08
2022-12-23T15:15:28.960Z,11.66
2022-12-23T15:20:33.204Z,9.70
2022-12-23T15:25:43.101Z,10.21
2022-12-23T15:30:56.793Z,11.12
2022-12-23T15:36:02.851Z,11.73
2022-12-23T15:41:15.052Z,12.00
2022-12-23T15:46:26.949Z,12.14
2022-12-23T15:57:01.429Z,11.16
2022-12-23T16:08:16.268Z,11.35
2022-12-23T16:13:20.980Z,11.80
2022-12-23T16:18:28.614Z,12.05
2022-12-23T16:23:36.644Z,12.34
2022-12-23T16:28:43.408Z,11.85
2022-12-23T16:33:57.409Z,9.79
2022-12-23T16:39:09.627Z,9.35
2022-12-23T16:44:12.760Z,10.70
2022-12-23T16:49:20.856Z,11.40
2022-12-23T16:54:23.975Z,11.84
2022-12-23T16:59:29.349Z,12.14
2022-12-23T17:04:32.468Z,12.40
2022-12-23T17:09:35.446Z,11.74
2022-12-23T17:14:38.974Z,9.73
2022-12-23T17:19:42.793Z,9.49
2022-12-23T17:24:45.791Z,10.75
2022-12-23T17:29:48.908Z,11.35
2022-12-23T17:34:52.012Z,11.66
2022-12-23T17:39:55.145Z,11.93
2022-12-23T17:44:58.131Z,11.95
2022-12-23T17:50:01.134Z,12.03
2022-12-23T17:55:04.304Z,12.26
2022-12-23T18:00:08.409Z,12.38
2022-12-23T18:05:32.640Z,11.58
2022-12-23T18:10:39.596Z,9.60
2022-12-23T18:15:44.452Z,10.36
2022-12-23T18:20:50.818Z,11.21
2022-12-23T18:25:54.442Z,11.41
2022-12-23T18:30:58.644Z,11.64
2022-12-23T18:36:01.734Z,11.80
2022-12-23T18:41:04.791Z,11.84
2022-12-23T18:46:08.171Z,11.96
2022-12-23T18:51:16.638Z,12.01
2022-12-23T18:56:21.362Z,11.97
2022-12-23T19:01:24.807Z,12.09
2022-12-23T19:06:28.013Z,12.11
2022-12-23T19:11:31.975Z,12.20
2022-12-23T19:16:35.011Z,11.25
2022-12-23T19:21:38.256Z,10.00
2022-12-23T19:26:41.269Z,10.92
2022-12-23T19:31:44.914Z,11.47
2022-12-23T19:36:48.307Z,11.68
2022-12-23T19:41:51.642Z,11.94
2022-12-23T19:46:54.721Z,11.98
2022-12-23T19:51:57.836Z,12.07
2022-12-23T19:57:00.745Z,12.14
2022-12-23T20:02:03.809Z,12.07
2022-12-23T20:07:07.063Z,10.28
2022-12-23T20:12:10.185Z,9.35
2022-12-23T20:17:13.171Z,10.46
2022-12-23T20:22:16.282Z,11.18
2022-12-23T20:27:25.966Z,11.56
2022-12-23T20:32:31.006Z,11.82
2022-12-23T20:37:34.002Z,12.06
2022-12-23T20:42:37.830Z,11.69
2022-12-23T20:47:41.265Z,9.66
2022-12-23T20:52:44.564Z,9.02
2022-12-23T20:57:47.576Z,10.35
2022-12-23T21:02:50.670Z,11.08
2022-12-23T21:07:53.684Z,11.49
2022-12-23T21:12:56.687Z,11.81
2022-12-23T21:17:59.900Z,12.01
2022-12-23T21:23:02.909Z,10.84
2022-12-23T21:28:05.999Z,10.22
2022-12-23T21:33:08.925Z,10.74
2022-12-23T21:38:11.922Z,10.55
2022-12-23T21:43:14.832Z,10.36
2022-12-23T21:48:17.734Z,10.14
2022-12-23T21:53:20.739Z,8.26
2022-12-23T21:58:23.744Z,9.08
2022-12-23T22:03:27.675Z,9.97
2022-12-23T22:08:30.711Z,10.40
2022-12-23T22:13:33.691Z,8.81
2022-12-23T22:18:37.253Z,8.03
2022-12-23T22:23:40.521Z,9.44
2022-12-23T22:28:43.528Z,10.33
2022-12-23T22:33:47.294Z,10.12
2022-12-23T22:38:55.681Z,8.21
2022-12-23T22:43:59.453Z,7.77
2022-12-23T22:49:02.517Z,9.27
2022-12-23T22:54:05.627Z,10.25
2022-12-23T22:59:18.259Z,9.99
2022-12-23T23:04:21.556Z,8.02
2022-12-23T23:09:24.578Z,7.57
2022-12-23T23:14:27.476Z,8.99
2022-12-23T23:19:30.592Z,10.05
2022-12-23T23:24:34.380Z,9.83
2022-12-23T23:29:37.346Z,7.88
2022-12-23T23:34:40.838Z,7.73
2022-12-23T23:39:43.953Z,9.39
2022-12-23T23:44:49.010Z,10.20
2022-12-23T23:49:52.106Z,9.85
2022-12-23T23:54:56.342Z,8.04
2022-12-23T23:59:59.357Z,7.82
